Main page
METAR-TAF:

METAR-TAF

Airports :

Ouarzazate Airport

Ouarzazate, Morocco

latitude: 30-56N, longitude: 006-54W, elevation: 1139 m

Current weather observation

The report was made 1 hour and 5 minutes ago, at 13:00 UTC
Wind 4 kt from the West
Temperature 22°C
Humidity 31%
Pressure 1015 hPa
Visibility 10 km or more
Scattered clouds at a height of 4000 ft

METAR: GMMZ 201300Z 26004KT 9999 SCT040 22/04 Q1015 NOSIG

Time: 15:05 (14:05 UTC)

Forecast

The report was made 3 hours and 5 minutes ago, at 11:00 UTC
Forecast valid from 20 at 12 UTC to 21 at 18 UTC
Wind 2 kt from variable directions
Visibility 10 km or more
Few clouds at a height of 4000 ft
Few clouds at a height of 5000 ft, Towering cumulus.
Temporary
from 20 at 18 UTC to 20 at 21 UTC
Wind 12 kt from the South

TAF: GMMZ 201100Z 2012/2118 VRB02KT 9999 FEW040 FEW050TCU TEMPO 2018/2021 17012KT

Weather observations and forecasts of more than 4000 airports (METAR and TAF reports).

The available stations are represented by yellow and red dots on the map.

Hover mouse over dot to see the name of the station.

Then click to see weather observations and forecasts.

To change the map : click on the green buttons with a black cross to zoom in, on the green button with a dash to zoom out, or on the green arrows for adjacent maps.


METAR-TAF: